sensor_id;sensor_type;location;lat;lon;timestamp;pressure;altitude;pressure_sealevel;temperature;humidity
75991;BME280;64673;52.276;10.560;2023-02-11T00:01:33;102255.81;;;3.46;78.99
75991;BME280;64673;52.276;10.560;2023-02-11T00:03:59;102238.16;;;3.45;79.62
75991;BME280;64673;52.276;10.560;2023-02-11T00:06:27;102238.41;;;3.50;79.68
75991;BME280;64673;52.276;10.560;2023-02-11T00:08:53;102232.47;;;3.48;80.21
75991;BME280;64673;52.276;10.560;2023-02-11T00:11:20;102236.97;;;3.48;79.35
75991;BME280;64673;52.276;10.560;2023-02-11T00:13:46;102225.41;;;3.70;80.31
75991;BME280;64673;52.276;10.560;2023-02-11T00:16:15;102209.28;;;3.63;80.32
75991;BME280;64673;52.276;10.560;2023-02-11T00:18:41;102216.47;;;3.78;80.73
75991;BME280;64673;52.276;10.560;2023-02-11T00:21:15;102204.88;;;3.71;81.25
75991;BME280;64673;52.276;10.560;2023-02-11T00:23:41;102213.53;;;3.87;80.95
75991;BME280;64673;52.276;10.560;2023-02-11T00:26:30;102223.16;;;4.03;80.74
75991;BME280;64673;52.276;10.560;2023-02-11T00:28:56;102223.63;;;4.21;80.92
75991;BME280;64673;52.276;10.560;2023-02-11T00:31:22;102232.63;;;4.20;81.41
75991;BME280;64673;52.276;10.560;2023-02-11T00:33:48;102221.84;;;4.28;80.79
75991;BME280;64673;52.276;10.560;2023-02-11T00:36:22;102209.47;;;4.42;80.33
75991;BME280;64673;52.276;10.560;2023-02-11T00:38:49;102211.56;;;4.47;80.43
75991;BME280;64673;52.276;10.560;2023-02-11T00:41:15;102212.72;;;4.59;79.81
75991;BME280;64673;52.276;10.560;2023-02-11T00:43:41;102217.06;;;4.60;80.77
75991;BME280;64673;52.276;10.560;2023-02-11T00:46:07;102217.34;;;4.65;80.51
75991;BME280;64673;52.276;10.560;2023-02-11T00:48:33;102224.59;;;4.71;80.22
75991;BME280;64673;52.276;10.560;2023-02-11T00:50:59;102214.53;;;4.73;80.35
75991;BME280;64673;52.276;10.560;2023-02-11T00:53:24;102241.44;;;4.71;81.05
75991;BME280;64673;52.276;10.560;2023-02-11T00:55:50;102240.31;;;4.81;80.25
75991;BME280;64673;52.276;10.560;2023-02-11T00:58:15;102231.72;;;4.85;80.33
75991;BME280;64673;52.276;10.560;2023-02-11T01:00:40;102243.66;;;4.89;80.77
75991;BME280;64673;52.276;10.560;2023-02-11T01:03:06;102240.38;;;4.87;80.58
75991;BME280;64673;52.276;10.560;2023-02-11T01:05:31;102258.78;;;4.97;79.98
75991;BME280;64673;52.276;10.560;2023-02-11T01:07:57;102260.22;;;4.99;79.91
75991;BME280;64673;52.276;10.560;2023-02-11T01:10:22;102253.22;;;4.98;79.93
75991;BME280;64673;52.276;10.560;2023-02-11T01:12:47;102257.44;;;5.07;79.91
75991;BME280;64673;52.276;10.560;2023-02-11T01:15:15;102257.22;;;5.09;80.33
75991;BME280;64673;52.276;10.560;2023-02-11T01:17:41;102240.94;;;5.04;80.67
75991;BME280;64673;52.276;10.560;2023-02-11T01:20:10;102226.38;;;5.06;80.22
75991;BME280;64673;52.276;10.560;2023-02-11T01:22:36;102216.09;;;5.10;80.97
75991;BME280;64673;52.276;10.560;2023-02-11T01:25:04;102199.00;;;5.04;80.36
75991;BME280;64673;52.276;10.560;2023-02-11T01:27:30;102191.59;;;5.06;80.65
75991;BME280;64673;52.276;10.560;2023-02-11T01:29:55;102209.50;;;5.06;80.93
75991;BME280;64673;52.276;10.560;2023-02-11T01:32:20;102218.34;;;5.06;80.80
75991;BME280;64673;52.276;10.560;2023-02-11T01:34:46;102230.69;;;5.07;81.11
75991;BME280;64673;52.276;10.560;2023-02-11T01:37:11;102221.66;;;5.08;81.33
75991;BME280;64673;52.276;10.560;2023-02-11T01:39:36;102218.59;;;5.11;81.48
75991;BME280;64673;52.276;10.560;2023-02-11T01:42:02;102225.78;;;5.11;81.31
75991;BME280;64673;52.276;10.560;2023-02-11T01:46:55;102221.25;;;5.11;82.28
75991;BME280;64673;52.276;10.560;2023-02-11T01:49:25;102205.81;;;5.07;81.66
75991;BME280;64673;52.276;10.560;2023-02-11T01:52:06;102208.47;;;5.07;83.01
75991;BME280;64673;52.276;10.560;2023-02-11T01:54:41;102200.50;;;5.13;82.67
75991;BME280;64673;52.276;10.560;2023-02-11T01:57:28;102202.94;;;5.08;83.09
75991;BME280;64673;52.276;10.560;2023-02-11T02:02:58;102209.91;;;5.09;83.08
75991;BME280;64673;52.276;10.560;2023-02-11T02:08:29;102194.91;;;5.08;83.52
75991;BME280;64673;52.276;10.560;2023-02-11T02:10:57;102180.28;;;5.04;83.56
75991;BME280;64673;52.276;10.560;2023-02-11T02:13:26;102186.44;;;5.05;84.04
75991;BME280;64673;52.276;10.560;2023-02-11T02:15:54;102186.44;;;5.05;83.46
75991;BME280;64673;52.276;10.560;2023-02-11T02:35:02;102165.44;;;5.02;85.38
75991;BME280;64673;52.276;10.560;2023-02-11T02:37:36;102163.59;;;5.02;85.35
75991;BME280;64673;52.276;10.560;2023-02-11T02:40:10;102157.88;;;5.05;85.88
75991;BME280;64673;52.276;10.560;2023-02-11T02:42:39;102151.03;;;5.03;85.87
75991;BME280;64673;52.276;10.560;2023-02-11T02:45:06;102150.47;;;5.07;85.64
75991;BME280;64673;52.276;10.560;2023-02-11T02:47:32;102155.00;;;5.07;85.34
75991;BME280;64673;52.276;10.560;2023-02-11T02:49:57;102146.34;;;5.05;86.28
75991;BME280;64673;52.276;10.560;2023-02-11T02:55:25;102145.50;;;5.04;86.06
75991;BME280;64673;52.276;10.560;2023-02-11T02:58:05;102136.09;;;5.08;86.14
75991;BME280;64673;52.276;10.560;2023-02-11T03:00:56;102138.75;;;5.08;85.27
75991;BME280;64673;52.276;10.560;2023-02-11T03:03:46;102132.78;;;5.06;86.00
75991;BME280;64673;52.276;10.560;2023-02-11T03:06:20;102137.94;;;5.08;85.88
75991;BME280;64673;52.276;10.560;2023-02-11T03:08:56;102143.66;;;5.05;86.36
75991;BME280;64673;52.276;10.560;2023-02-11T03:11:24;102141.56;;;5.00;86.20
75991;BME280;64673;52.276;10.560;2023-02-11T03:13:51;102156.66;;;5.08;86.45
75991;BME280;64673;52.276;10.560;2023-02-11T03:16:22;102140.81;;;5.06;86.41
75991;BME280;64673;52.276;10.560;2023-02-11T03:18:56;102155.81;;;5.07;86.16
75991;BME280;64673;52.276;10.560;2023-02-11T03:21:23;102155.88;;;5.14;86.39
75991;BME280;64673;52.276;10.560;2023-02-11T03:23:53;102155.81;;;5.07;86.67
75991;BME280;64673;52.276;10.560;2023-02-11T03:27:11;102157.47;;;5.08;87.30
75991;BME280;64673;52.276;10.560;2023-02-11T03:37:02;102134.44;;;5.07;87.19
75991;BME280;64673;52.276;10.560;2023-02-11T03:39:35;102125.41;;;5.08;87.58
75991;BME280;64673;52.276;10.560;2023-02-11T03:42:03;102130.09;;;5.06;87.81
75991;BME280;64673;52.276;10.560;2023-02-11T03:44:34;102123.47;;;5.02;88.17
75991;BME280;64673;52.276;10.560;2023-02-11T03:47:02;102122.72;;;5.08;88.03
75991;BME280;64673;52.276;10.560;2023-02-11T03:49:31;102124.31;;;5.03;87.52
75991;BME280;64673;52.276;10.560;2023-02-11T03:51:57;102141.81;;;5.05;88.19
75991;BME280;64673;52.276;10.560;2023-02-11T03:54:28;102136.50;;;5.12;87.86
75991;BME280;64673;52.276;10.560;2023-02-11T03:56:57;102143.91;;;5.10;88.12
75991;BME280;64673;52.276;10.560;2023-02-11T03:59:23;102149.69;;;5.13;87.10
75991;BME280;64673;52.276;10.560;2023-02-11T04:01:48;102154.81;;;5.08;88.37
75991;BME280;64673;52.276;10.560;2023-02-11T04:04:14;102144.53;;;5.12;88.35
75991;BME280;64673;52.276;10.560;2023-02-11T04:06:39;102146.81;;;5.15;88.48
75991;BME280;64673;52.276;10.560;2023-02-11T04:09:05;102149.69;;;5.13;87.90
75991;BME280;64673;52.276;10.560;2023-02-11T04:11:30;102145.13;;;5.07;88.47
75991;BME280;64673;52.276;10.560;2023-02-11T04:13:56;102148.00;;;5.06;88.63
75991;BME280;64673;52.276;10.560;2023-02-11T04:16:22;102142.19;;;5.02;89.84
75991;BME280;64673;52.276;10.560;2023-02-11T04:18:48;102145.88;;;5.01;89.44
75991;BME280;64673;52.276;10.560;2023-02-11T04:21:13;102139.72;;;5.01;89.38
75991;BME280;64673;52.276;10.560;2023-02-11T04:23:38;102145.50;;;5.04;89.33
75991;BME280;64673;52.276;10.560;2023-02-11T04:26:04;102147.59;;;5.09;89.28
75991;BME280;64673;52.276;10.560;2023-02-11T04:28:29;102147.94;;;4.99;90.50
75991;BME280;64673;52.276;10.560;2023-02-11T04:30:55;102154.56;;;5.03;90.39
75991;BME280;64673;52.276;10.560;2023-02-11T04:33:21;102152.91;;;5.02;89.21
75991;BME280;64673;52.276;10.560;2023-02-11T04:35:47;102166.03;;;4.97;90.84
75991;BME280;64673;52.276;10.560;2023-02-11T04:38:12;102179.78;;;4.94;90.72
75991;BME280;64673;52.276;10.560;2023-02-11T04:40:38;102159.41;;;4.93;90.90
75991;BME280;64673;52.276;10.560;2023-02-11T04:43:04;102160.22;;;4.94;91.18
75991;BME280;64673;52.276;10.560;2023-02-11T04:45:29;102161.06;;;4.94;91.75
75991;BME280;64673;52.276;10.560;2023-02-11T04:47:55;102149.50;;;4.87;92.16
75991;BME280;64673;52.276;10.560;2023-02-11T04:50:20;102151.13;;;4.88;92.03
75991;BME280;64673;52.276;10.560;2023-02-11T04:52:45;102151.56;;;4.92;91.99
75991;BME280;64673;52.276;10.560;2023-02-11T04:55:11;102150.28;;;4.88;92.57
75991;BME280;64673;52.276;10.560;2023-02-11T04:57:36;102145.34;;;4.85;92.74
75991;BME280;64673;52.276;10.560;2023-02-11T05:00:02;102137.53;;;4.83;93.03
75991;BME280;64673;52.276;10.560;2023-02-11T05:02:28;102135.22;;;4.80;93.40
75991;BME280;64673;52.276;10.560;2023-02-11T05:04:54;102137.06;;;4.79;93.30
75991;BME280;64673;52.276;10.560;2023-02-11T05:07:19;102140.16;;;4.76;94.04
75991;BME280;64673;52.276;10.560;2023-02-11T05:09:44;102124.53;;;4.80;93.57
75991;BME280;64673;52.276;10.560;2023-02-11T05:12:09;102122.69;;;4.81;93.89
75991;BME280;64673;52.276;10.560;2023-02-11T05:14:35;102124.91;;;4.77;93.73
75991;BME280;64673;52.276;10.560;2023-02-11T05:17:00;102119.97;;;4.74;93.80
75991;BME280;64673;52.276;10.560;2023-02-11T05:19:25;102124.31;;;4.75;94.09
75991;BME280;64673;52.276;10.560;2023-02-11T05:21:51;102118.13;;;4.74;94.03
75991;BME280;64673;52.276;10.560;2023-02-11T05:24:17;102118.56;;;4.78;94.37
75991;BME280;64673;52.276;10.560;2023-02-11T05:26:43;102119.38;;;4.78;93.30
75991;BME280;64673;52.276;10.560;2023-02-11T05:29:08;102129.25;;;4.78;93.97
75991;BME280;64673;52.276;10.560;2023-02-11T05:31:33;102127.41;;;4.78;93.35
75991;BME280;64673;52.276;10.560;2023-02-11T05:33:59;102126.84;;;4.83;93.03
75991;BME280;64673;52.276;10.560;2023-02-11T05:36:24;102121.47;;;4.83;93.77
75991;BME280;64673;52.276;10.560;2023-02-11T05:38:49;102118.16;;;4.81;94.06
75991;BME280;64673;52.276;10.560;2023-02-11T05:41:15;102117.34;;;4.81;93.32
75991;BME280;64673;52.276;10.560;2023-02-11T05:43:40;102113.47;;;4.83;93.67
75991;BME280;64673;52.276;10.560;2023-02-11T05:46:06;102122.94;;;4.86;93.36
75991;BME280;64673;52.276;10.560;2023-02-11T05:48:31;102112.69;;;4.89;92.94
75991;BME280;64673;52.276;10.560;2023-02-11T05:50:57;102112.88;;;4.88;92.83
75991;BME280;64673;52.276;10.560;2023-02-11T05:53:22;102111.66;;;4.90;92.68
75991;BME280;64673;52.276;10.560;2023-02-11T05:55:47;102113.31;;;4.91;92.60
75991;BME280;64673;52.276;10.560;2023-02-11T05:58:13;102112.69;;;4.89;92.90
75991;BME280;64673;52.276;10.560;2023-02-11T06:00:38;102110.47;;;4.93;92.28
75991;BME280;64673;52.276;10.560;2023-02-11T06:03:04;102105.56;;;4.96;92.69
75991;BME280;64673;52.276;10.560;2023-02-11T06:05:30;102112.94;;;4.94;92.37
75991;BME280;64673;52.276;10.560;2023-02-11T06:07:55;102117.69;;;4.99;92.00
75991;BME280;64673;52.276;10.560;2023-02-11T06:10:21;102110.50;;;4.99;92.16
75991;BME280;64673;52.276;10.560;2023-02-11T06:12:46;102119.53;;;4.98;92.19
75991;BME280;64673;52.276;10.560;2023-02-11T06:15:12;102105.16;;;4.99;91.41
75991;BME280;64673;52.276;10.560;2023-02-11T06:17:37;102103.09;;;5.01;91.51
75991;BME280;64673;52.276;10.560;2023-02-11T06:20:05;102092.41;;;5.01;91.92
75991;BME280;64673;52.276;10.560;2023-02-11T06:22:30;102095.53;;;5.05;91.12
75991;BME280;64673;52.276;10.560;2023-02-11T06:24:55;102092.25;;;5.09;91.88
75991;BME280;64673;52.276;10.560;2023-02-11T06:27:21;102096.56;;;5.04;91.05
75991;BME280;64673;52.276;10.560;2023-02-11T06:29:47;102086.91;;;5.09;91.33
75991;BME280;64673;52.276;10.560;2023-02-11T06:32:12;102087.97;;;5.08;91.32
75991;BME280;64673;52.276;10.560;2023-02-11T06:34:38;102100.09;;;5.11;91.04
75991;BME280;64673;52.276;10.560;2023-02-11T06:37:03;102097.59;;;5.09;91.05
75991;BME280;64673;52.276;10.560;2023-02-11T06:39:29;102103.22;;;5.14;90.30
75991;BME280;64673;52.276;10.560;2023-02-11T06:41:54;102101.56;;;5.13;91.26
75991;BME280;64673;52.276;10.560;2023-02-11T06:44:20;102098.31;;;5.18;90.49
75991;BME280;64673;52.276;10.560;2023-02-11T06:46:46;102105.50;;;5.18;91.17
75991;BME280;64673;52.276;10.560;2023-02-11T06:49:12;102102.41;;;5.21;90.58
75991;BME280;64673;52.276;10.560;2023-02-11T06:51:37;102108.59;;;5.21;90.95
75991;BME280;64673;52.276;10.560;2023-02-11T06:54:04;102109.84;;;5.25;90.39
75991;BME280;64673;52.276;10.560;2023-02-11T06:56:30;102103.69;;;5.25;90.19
75991;BME280;64673;52.276;10.560;2023-02-11T06:58:55;102100.19;;;5.24;90.11
75991;BME280;64673;52.276;10.560;2023-02-11T07:01:22;102101.22;;;5.30;90.51
75991;BME280;64673;52.276;10.560;2023-02-11T07:03:49;102108.66;;;5.28;90.36
75991;BME280;64673;52.276;10.560;2023-02-11T07:06:18;102107.84;;;5.34;90.05
75991;BME280;64673;52.276;10.560;2023-02-11T07:08:44;102120.59;;;5.32;90.19
75991;BME280;64673;52.276;10.560;2023-02-11T07:11:12;102113.00;;;5.35;90.60
75991;BME280;64673;52.276;10.560;2023-02-11T07:13:38;102118.56;;;5.40;89.78
75991;BME280;64673;52.276;10.560;2023-02-11T07:16:09;102117.78;;;5.40;90.05
75991;BME280;64673;52.276;10.560;2023-02-11T07:18:34;102130.09;;;5.41;89.74
75991;BME280;64673;52.276;10.560;2023-02-11T07:21:08;102111.78;;;5.38;89.91
75991;BME280;64673;52.276;10.560;2023-02-11T07:23:34;102112.81;;;5.37;90.17
75991;BME280;64673;52.276;10.560;2023-02-11T07:26:06;102132.38;;;5.37;90.11
75991;BME280;64673;52.276;10.560;2023-02-11T07:28:33;102120.66;;;5.45;89.63
75991;BME280;64673;52.276;10.560;2023-02-11T07:31:05;102102.97;;;5.44;90.01
75991;BME280;64673;52.276;10.560;2023-02-11T07:33:30;102101.31;;;5.43;89.82
75991;BME280;64673;52.276;10.560;2023-02-11T07:35:59;102097.22;;;5.47;89.51
75991;BME280;64673;52.276;10.560;2023-02-11T07:38:24;102095.56;;;5.46;89.39
75991;BME280;64673;52.276;10.560;2023-02-11T07:40:50;102099.91;;;5.47;89.59
75991;BME280;64673;52.276;10.560;2023-02-11T07:43:15;102104.22;;;5.48;89.06
75991;BME280;64673;52.276;10.560;2023-02-11T07:45:40;102102.19;;;5.50;89.43
75991;BME280;64673;52.276;10.560;2023-02-11T07:48:05;102109.16;;;5.51;89.01
75991;BME280;64673;52.276;10.560;2023-02-11T07:50:31;102100.13;;;5.52;89.51
75991;BME280;64673;52.276;10.560;2023-02-11T07:52:56;102108.38;;;5.57;88.83
75991;BME280;64673;52.276;10.560;2023-02-11T07:55:21;102109.41;;;5.56;89.37
75991;BME280;64673;52.276;10.560;2023-02-11T07:57:47;102123.22;;;5.60;88.98
75991;BME280;64673;52.276;10.560;2023-02-11T08:00:13;102132.69;;;5.62;88.77
75991;BME280;64673;52.276;10.560;2023-02-11T08:02:38;102129.19;;;5.62;88.61
75991;BME280;64673;52.276;10.560;2023-02-11T08:05:04;102134.53;;;5.62;88.83
75991;BME280;64673;52.276;10.560;2023-02-11T08:07:29;102142.78;;;5.60;89.29
75991;BME280;64673;52.276;10.560;2023-02-11T08:09:54;102156.19;;;5.60;88.68
75991;BME280;64673;52.276;10.560;2023-02-11T08:12:20;102149.38;;;5.64;89.23
75991;BME280;64673;52.276;10.560;2023-02-11T08:14:45;102151.03;;;5.65;89.18
75991;BME280;64673;52.276;10.560;2023-02-11T08:17:10;102135.16;;;5.64;89.35
75991;BME280;64673;52.276;10.560;2023-02-11T08:19:36;102145.06;;;5.63;89.33
75991;BME280;64673;52.276;10.560;2023-02-11T08:22:02;102141.78;;;5.68;89.03
75991;BME280;64673;52.276;10.560;2023-02-11T08:24:28;102143.00;;;5.65;89.04
75991;BME280;64673;52.276;10.560;2023-02-11T08:26:53;102150.84;;;5.67;89.52
75991;BME280;64673;52.276;10.560;2023-02-11T08:29:19;102155.16;;;5.61;89.90
75991;BME280;64673;52.276;10.560;2023-02-11T08:31:46;102152.06;;;5.64;89.85
75991;BME280;64673;52.276;10.560;2023-02-11T08:34:13;102156.19;;;5.67;90.22
75991;BME280;64673;52.276;10.560;2023-02-11T08:36:40;102154.53;;;5.66;89.75
75991;BME280;64673;52.276;10.560;2023-02-11T08:39:08;102154.56;;;5.72;89.91
75991;BME280;64673;52.276;10.560;2023-02-11T08:41:36;102151.22;;;5.64;90.34
75991;BME280;64673;52.276;10.560;2023-02-11T08:44:02;102149.81;;;5.68;89.69
75991;BME280;64673;52.276;10.560;2023-02-11T08:46:28;102140.97;;;5.67;90.18
75991;BME280;64673;52.276;10.560;2023-02-11T08:48:53;102136.47;;;5.74;90.00
75991;BME280;64673;52.276;10.560;2023-02-11T08:51:23;102146.59;;;5.79;90.10
75991;BME280;64673;52.276;10.560;2023-02-11T08:53:50;102151.31;;;5.77;89.82
75991;BME280;64673;52.276;10.560;2023-02-11T08:56:17;102147.16;;;5.74;90.62
75991;BME280;64673;52.276;10.560;2023-02-11T08:58:44;102152.97;;;5.78;90.30
75991;BME280;64673;52.276;10.560;2023-02-11T09:01:11;102150.31;;;5.84;89.97
75991;BME280;64673;52.276;10.560;2023-02-11T09:03:37;102151.75;;;5.80;90.23
75991;BME280;64673;52.276;10.560;2023-02-11T09:06:04;102159.16;;;5.85;90.29
75991;BME280;64673;52.276;10.560;2023-02-11T09:08:33;102141.25;;;5.85;89.47
75991;BME280;64673;52.276;10.560;2023-02-11T09:10:59;102162.94;;;5.91;89.60
75991;BME280;64673;52.276;10.560;2023-02-11T09:13:25;102160.91;;;5.99;89.37
75991;BME280;64673;52.276;10.560;2023-02-11T09:15:50;102166.25;;;5.93;89.77
75991;BME280;64673;52.276;10.560;2023-02-11T09:18:15;102170.78;;;5.99;89.51
75991;BME280;64673;52.276;10.560;2023-02-11T09:20:41;102168.72;;;5.94;89.47
75991;BME280;64673;52.276;10.560;2023-02-11T09:23:06;102177.56;;;5.95;89.59
75991;BME280;64673;52.276;10.560;2023-02-11T09:25:31;102184.38;;;5.91;89.34
75991;BME280;64673;52.276;10.560;2023-02-11T09:27:57;102184.56;;;5.96;89.77
75991;BME280;64673;52.276;10.560;2023-02-11T09:30:22;102176.53;;;5.96;90.22
75991;BME280;64673;52.276;10.560;2023-02-11T09:32:47;102177.78;;;5.93;89.78
75991;BME280;64673;52.276;10.560;2023-02-11T09:35:13;102184.09;;;5.85;90.28
75991;BME280;64673;52.276;10.560;2023-02-11T09:37:38;102185.09;;;5.84;90.25
75991;BME280;64673;52.276;10.560;2023-02-11T09:40:04;102187.19;;;5.82;90.71
75991;BME280;64673;52.276;10.560;2023-02-11T09:45:02;102205.78;;;5.91;90.45
75991;BME280;64673;52.276;10.560;2023-02-11T09:47:31;102203.31;;;5.96;90.07
75991;BME280;64673;52.276;10.560;2023-02-11T09:50:13;102204.97;;;5.97;90.00
75991;BME280;64673;52.276;10.560;2023-02-11T09:53:02;102206.81;;;5.90;90.23
75991;BME280;64673;52.276;10.560;2023-02-11T09:55:34;102211.50;;;5.87;90.47
75991;BME280;64673;52.276;10.560;2023-02-11T09:58:12;102209.22;;;5.84;90.71
75991;BME280;64673;52.276;10.560;2023-02-11T10:04:01;102211.50;;;5.87;91.52
75991;BME280;64673;52.276;10.560;2023-02-11T10:06:38;102218.25;;;5.83;91.78
75991;BME280;64673;52.276;10.560;2023-02-11T10:09:32;102231.09;;;5.88;91.82
75991;BME280;64673;52.276;10.560;2023-02-11T10:12:27;102229.38;;;5.80;92.00
75991;BME280;64673;52.276;10.560;2023-02-11T10:20:47;102222.22;;;5.87;92.51
75991;BME280;64673;52.276;10.560;2023-02-11T10:23:20;102207.44;;;5.92;92.74
75991;BME280;64673;52.276;10.560;2023-02-11T10:25:49;102209.00;;;5.86;92.80
75991;BME280;64673;52.276;10.560;2023-02-11T10:28:20;102215.88;;;5.88;92.87
75991;BME280;64673;52.276;10.560;2023-02-11T10:31:08;102221.03;;;5.90;93.24
75991;BME280;64673;52.276;10.560;2023-02-11T10:36:01;102215.47;;;5.92;92.96
75991;BME280;64673;52.276;10.560;2023-02-11T10:38:27;102227.56;;;5.87;92.99
75991;BME280;64673;52.276;10.560;2023-02-11T10:40:52;102212.59;;;5.93;93.13
75991;BME280;64673;52.276;10.560;2023-02-11T10:43:22;102205.38;;;5.94;93.25
75991;BME280;64673;52.276;10.560;2023-02-11T10:45:50;102222.06;;;5.96;93.27
75991;BME280;64673;52.276;10.560;2023-02-11T10:53:35;102238.00;;;6.04;92.36
75991;BME280;64673;52.276;10.560;2023-02-11T10:56:01;102215.31;;;6.06;92.74
75991;BME280;64673;52.276;10.560;2023-02-11T11:01:00;102213.28;;;6.08;92.73
75991;BME280;64673;52.276;10.560;2023-02-11T11:03:35;102221.13;;;6.10;92.71
75991;BME280;64673;52.276;10.560;2023-02-11T11:06:05;102226.66;;;6.08;93.37
75991;BME280;64673;52.276;10.560;2023-02-11T11:08:52;102229.34;;;6.08;92.75
75991;BME280;64673;52.276;10.560;2023-02-11T11:11:20;102229.38;;;6.15;92.72
75991;BME280;64673;52.276;10.560;2023-02-11T11:18:50;102225.91;;;6.21;92.37
75991;BME280;64673;52.276;10.560;2023-02-11T11:21:25;102230.06;;;6.30;92.39
75991;BME280;64673;52.276;10.560;2023-02-11T11:23:56;102227.97;;;6.25;92.65
75991;BME280;64673;52.276;10.560;2023-02-11T11:26:43;102224.91;;;6.29;92.48
75991;BME280;64673;52.276;10.560;2023-02-11T11:29:13;102228.22;;;6.37;92.32
75991;BME280;64673;52.276;10.560;2023-02-11T11:31:52;102222.47;;;6.34;92.27
75991;BME280;64673;52.276;10.560;2023-02-11T11:34:22;102218.78;;;6.41;92.21
75991;BME280;64673;52.276;10.560;2023-02-11T11:36:51;102236.25;;;6.31;91.95
75991;BME280;64673;52.276;10.560;2023-02-11T11:39:23;102230.31;;;6.35;92.91
75991;BME280;64673;52.276;10.560;2023-02-11T11:41:55;102236.50;;;6.42;92.63
75991;BME280;64673;52.276;10.560;2023-02-11T11:44:35;102226.59;;;6.43;92.14
75991;BME280;64673;52.276;10.560;2023-02-11T11:55:20;102219.63;;;6.55;91.89
75991;BME280;64673;52.276;10.560;2023-02-11T11:57:47;102220.03;;;6.52;91.09
75991;BME280;64673;52.276;10.560;2023-02-11T12:00:30;102238.22;;;6.56;91.31
75991;BME280;64673;52.276;10.560;2023-02-11T12:08:54;102247.88;;;6.57;91.02
75991;BME280;64673;52.276;10.560;2023-02-11T12:29:07;102261.75;;;6.81;90.67
75991;BME280;64673;52.276;10.560;2023-02-11T12:34:29;102260.09;;;6.80;90.66
75991;BME280;64673;52.276;10.560;2023-02-11T12:37:25;102251.88;;;6.81;90.53
75991;BME280;64673;52.276;10.560;2023-02-11T12:43:18;102267.94;;;6.81;90.40
75991;BME280;64673;52.276;10.560;2023-02-11T12:48:32;102272.91;;;6.78;90.46
75991;BME280;64673;52.276;10.560;2023-02-11T12:56:27;102253.50;;;6.89;89.98
75991;BME280;64673;52.276;10.560;2023-02-11T12:58:56;102253.31;;;6.84;90.31
75991;BME280;64673;52.276;10.560;2023-02-11T13:01:29;102256.63;;;6.86;90.14
75991;BME280;64673;52.276;10.560;2023-02-11T13:06:34;102257.25;;;6.88;89.94
75991;BME280;64673;52.276;10.560;2023-02-11T13:09:03;102261.38;;;6.90;90.10
75991;BME280;64673;52.276;10.560;2023-02-11T13:11:38;102258.28;;;7.00;89.91
75991;BME280;64673;52.276;10.560;2023-02-11T13:16:47;102251.06;;;6.94;90.10
75991;BME280;64673;52.276;10.560;2023-02-11T13:35:34;102249.88;;;7.10;90.01
75991;BME280;64673;52.276;10.560;2023-02-11T13:38:21;102247.78;;;7.05;89.98
75991;BME280;64673;52.276;10.560;2023-02-11T13:41:38;102276.66;;;6.96;90.04
75991;BME280;64673;52.276;10.560;2023-02-11T13:46:58;102267.59;;;7.11;89.19
75991;BME280;64673;52.276;10.560;2023-02-11T13:49:31;102251.28;;;7.06;89.62
75991;BME280;64673;52.276;10.560;2023-02-11T13:51:59;102272.94;;;7.11;89.27
75991;BME280;64673;52.276;10.560;2023-02-11T13:54:29;102274.22;;;7.08;89.51
75991;BME280;64673;52.276;10.560;2023-02-11T13:57:20;102273.38;;;7.14;89.33
75991;BME280;64673;52.276;10.560;2023-02-11T13:59:47;102281.84;;;7.18;89.32
75991;BME280;64673;52.276;10.560;2023-02-11T14:10:55;102279.59;;;7.28;88.72
75991;BME280;64673;52.276;10.560;2023-02-11T14:13:25;102286.41;;;7.17;89.06
75991;BME280;64673;52.276;10.560;2023-02-11T14:21:32;102281.22;;;7.16;89.41
75991;BME280;64673;52.276;10.560;2023-02-11T14:26:45;102290.69;;;7.12;89.68
75991;BME280;64673;52.276;10.560;2023-02-11T14:29:16;102298.56;;;7.13;89.43
75991;BME280;64673;52.276;10.560;2023-02-11T14:42:16;102307.00;;;7.10;90.22
75991;BME280;64673;52.276;10.560;2023-02-11T14:44:43;102310.31;;;7.12;90.23
75991;BME280;64673;52.276;10.560;2023-02-11T14:47:17;102317.34;;;7.13;90.18
75991;BME280;64673;52.276;10.560;2023-02-11T14:49:44;102303.31;;;7.18;90.04
75991;BME280;64673;52.276;10.560;2023-02-11T14:52:19;102297.09;;;7.11;90.40
75991;BME280;64673;52.276;10.560;2023-02-11T14:54:48;102318.78;;;7.09;90.25
75991;BME280;64673;52.276;10.560;2023-02-11T14:57:19;102301.88;;;7.09;90.50
75991;BME280;64673;52.276;10.560;2023-02-11T14:59:59;102311.97;;;7.13;90.41
75991;BME280;64673;52.276;10.560;2023-02-11T15:02:34;102311.97;;;7.13;90.42
75991;BME280;64673;52.276;10.560;2023-02-11T15:05:17;102326.66;;;7.17;90.27
75991;BME280;64673;52.276;10.560;2023-02-11T15:07:54;102321.28;;;7.17;90.06
75991;BME280;64673;52.276;10.560;2023-02-11T15:10:34;102314.44;;;7.21;90.10
75991;BME280;64673;52.276;10.560;2023-02-11T15:13:01;102324.34;;;7.21;90.05
75991;BME280;64673;52.276;10.560;2023-02-11T15:15:28;102321.66;;;7.14;90.40
75991;BME280;64673;52.276;10.560;2023-02-11T15:17:55;102324.78;;;7.18;90.25
75991;BME280;64673;52.276;10.560;2023-02-11T15:20:27;102324.16;;;7.22;90.23
75991;BME280;64673;52.276;10.560;2023-02-11T15:22:57;102317.97;;;7.22;90.15
75991;BME280;64673;52.276;10.560;2023-02-11T15:25:23;102318.78;;;7.22;90.25
75991;BME280;64673;52.276;10.560;2023-02-11T15:27:52;102319.00;;;7.21;90.14
75991;BME280;64673;52.276;10.560;2023-02-11T15:32:58;102330.78;;;7.20;90.48
75991;BME280;64673;52.276;10.560;2023-02-11T15:35:26;102319.81;;;7.21;90.14
75991;BME280;64673;52.276;10.560;2023-02-11T15:37:53;102331.81;;;7.25;90.02
75991;BME280;64673;52.276;10.560;2023-02-11T15:40:21;102335.31;;;7.26;90.27
75991;BME280;64673;52.276;10.560;2023-02-11T15:45:41;102346.44;;;7.23;90.44